createdAt,value
2018-05-08T00:01:54.016Z,19.80
2018-05-08T00:04:21.548Z,19.80
2018-05-08T00:06:48.995Z,19.60
2018-05-08T00:09:16.439Z,19.80
2018-05-08T00:11:43.920Z,19.50
2018-05-08T00:14:11.359Z,19.50
2018-05-08T00:16:38.841Z,19.50
2018-05-08T00:19:06.267Z,19.50
2018-05-08T00:21:33.879Z,19.40
2018-05-08T00:24:01.320Z,19.30
2018-05-08T00:26:28.758Z,19.20
2018-05-08T00:28:56.210Z,19.20
2018-05-08T00:31:23.647Z,19.10
2018-05-08T00:33:51.851Z,19.10
2018-05-08T00:36:19.291Z,19.10
2018-05-08T00:38:46.745Z,19.10
2018-05-08T00:41:14.227Z,19.10
2018-05-08T00:43:41.688Z,19.10
2018-05-08T00:46:09.123Z,19.10
2018-05-08T00:48:36.599Z,19.10
2018-05-08T00:51:04.042Z,19.20
2018-05-08T00:53:31.534Z,19.20
2018-05-08T00:55:58.951Z,19.20
2018-05-08T00:58:26.439Z,19.20
2018-05-08T01:00:53.854Z,19.00
2018-05-08T01:03:21.339Z,18.90
2018-05-08T01:05:48.775Z,18.90
2018-05-08T01:08:16.986Z,18.90
2018-05-08T01:10:44.419Z,18.90
2018-05-08T01:13:11.859Z,18.80
2018-05-08T01:15:40.090Z,18.70
2018-05-08T01:18:07.518Z,18.60
2018-05-08T01:20:35.030Z,18.60
2018-05-08T01:23:02.467Z,18.60
2018-05-08T01:25:29.908Z,18.70
2018-05-08T01:27:57.342Z,18.70
2018-05-08T01:30:24.774Z,18.70
2018-05-08T01:32:52.991Z,18.70
2018-05-08T01:35:20.406Z,18.60
2018-05-08T01:37:48.623Z,18.50
2018-05-08T01:40:16.069Z,18.50
2018-05-08T01:42:43.491Z,18.50
2018-05-08T01:45:11.726Z,18.40
2018-05-08T01:47:39.156Z,18.30
2018-05-08T01:50:06.608Z,18.30
2018-05-08T01:52:34.080Z,18.30
2018-05-08T01:55:01.520Z,18.30
2018-05-08T01:57:29.125Z,18.20
2018-05-08T01:59:56.628Z,18.20
2018-05-08T02:02:24.815Z,18.10
2018-05-08T02:04:52.249Z,18.00
2018-05-08T02:07:20.450Z,18.10
2018-05-08T02:09:47.879Z,18.10
2018-05-08T02:12:16.084Z,18.20
2018-05-08T02:14:43.559Z,18.20
2018-05-08T02:17:10.991Z,18.00
2018-05-08T02:19:38.423Z,17.80
2018-05-08T02:22:06.645Z,17.90
2018-05-08T02:24:34.111Z,17.80
2018-05-08T02:27:01.553Z,17.80
2018-05-08T02:29:28.998Z,17.80
2018-05-08T02:31:56.423Z,17.80
2018-05-08T02:34:23.887Z,17.70
2018-05-08T02:36:51.317Z,17.70
2018-05-08T02:39:18.741Z,17.80
2018-05-08T02:41:46.320Z,17.50
2018-05-08T02:44:13.773Z,17.50
2018-05-08T02:46:41.199Z,17.50
2018-05-08T02:49:08.627Z,17.50
2018-05-08T02:51:36.062Z,17.40
2018-05-08T02:54:03.491Z,17.40
2018-05-08T02:56:30.918Z,17.40
2018-05-08T02:58:59.136Z,17.50
2018-05-08T03:01:26.543Z,17.40
2018-05-08T03:03:54.746Z,17.30
2018-05-08T03:06:22.180Z,17.30
2018-05-08T03:08:50.389Z,17.30
2018-05-08T03:11:17.816Z,17.30
2018-05-08T03:13:46.171Z,17.30
2018-05-08T03:16:13.614Z,17.20
2018-05-08T03:18:41.052Z,17.30
2018-05-08T03:21:08.499Z,17.20
2018-05-08T03:23:35.954Z,17.20
2018-05-08T03:26:03.412Z,17.10
2018-05-08T03:28:30.844Z,17.10
2018-05-08T03:30:59.051Z,17.10
2018-05-08T03:33:26.471Z,17.10
2018-05-08T03:35:53.975Z,17.10
2018-05-08T03:38:21.409Z,17.00
2018-05-08T03:40:48.894Z,17.10
2018-05-08T03:43:16.308Z,17.00
2018-05-08T03:45:43.739Z,17.10
2018-05-08T03:48:11.260Z,17.10
2018-05-08T03:50:38.690Z,17.10
2018-05-08T03:53:06.127Z,17.10
2018-05-08T03:55:33.555Z,16.90
2018-05-08T03:58:00.989Z,16.80
2018-05-08T04:00:40.526Z,16.90
2018-05-08T04:03:19.879Z,17.00
2018-05-08T04:09:01.775Z,16.80
2018-05-08T04:11:29.238Z,16.80
2018-05-08T04:13:56.692Z,16.80
2018-05-08T04:16:24.245Z,16.90
2018-05-08T04:18:51.669Z,17.10
2018-05-08T04:21:19.889Z,17.10
2018-05-08T04:23:47.352Z,17.00
2018-05-08T04:26:14.796Z,17.10
2018-05-08T04:28:42.220Z,17.10
2018-05-08T04:31:10.424Z,17.10
2018-05-08T04:33:37.861Z,17.10
2018-05-08T04:36:05.302Z,17.20
2018-05-08T04:38:33.491Z,17.10
2018-05-08T04:41:00.979Z,17.10
2018-05-08T04:43:28.419Z,17.10
2018-05-08T04:45:56.635Z,17.30
2018-05-08T04:48:24.062Z,17.20
2018-05-08T04:50:51.504Z,17.30
2018-05-08T04:53:18.988Z,17.30
2018-05-08T04:55:46.728Z,17.30
2018-05-08T04:58:14.075Z,17.40
2018-05-08T05:00:41.550Z,17.50
2018-05-08T05:03:09.775Z,17.60
2018-05-08T05:05:37.194Z,17.50
2018-05-08T05:08:04.671Z,17.90
2018-05-08T05:10:32.124Z,17.60
2018-05-08T05:12:59.560Z,17.70
2018-05-08T05:15:27.008Z,17.70
2018-05-08T05:17:54.459Z,17.80
2018-05-08T05:20:21.899Z,17.90
2018-05-08T05:22:50.099Z,18.00
2018-05-08T05:25:17.535Z,18.00
2018-05-08T05:27:46.677Z,18.30
2018-05-08T05:30:14.103Z,18.20
2018-05-08T05:32:41.616Z,18.40
2018-05-08T05:35:09.043Z,18.40
2018-05-08T05:37:36.483Z,18.40
2018-05-08T05:40:03.915Z,18.50
2018-05-08T05:42:32.149Z,18.60
2018-05-08T05:44:59.586Z,18.60
2018-05-08T05:47:27.015Z,18.70
2018-05-08T05:49:54.516Z,18.70
2018-05-08T05:52:21.975Z,18.80
2018-05-08T05:54:49.409Z,18.90
2018-05-08T05:57:16.845Z,19.00
2018-05-08T05:59:45.048Z,19.30
2018-05-08T06:02:12.546Z,19.30
2018-05-08T06:04:39.976Z,19.40
2018-05-08T06:07:07.425Z,19.60
2018-05-08T06:09:34.882Z,19.60
2018-05-08T06:12:02.452Z,19.70
2018-05-08T06:14:30.531Z,19.80
2018-05-08T06:16:57.970Z,19.90
2018-05-08T06:19:25.408Z,20.00
2018-05-08T06:21:53.020Z,20.30
2018-05-08T06:24:20.455Z,20.40
2018-05-08T06:26:47.899Z,20.50
2018-05-08T06:29:15.337Z,20.70
2018-05-08T06:31:42.835Z,21.10
2018-05-08T06:34:10.274Z,22.20
2018-05-08T06:36:37.699Z,24.20
2018-05-08T06:39:05.905Z,28.80
2018-05-08T06:41:33.327Z,28.60
2018-05-08T06:44:01.530Z,32.40
2018-05-08T06:46:29.011Z,32.30
2018-05-08T06:48:56.463Z,33.80
2018-05-08T06:51:23.891Z,34.50
2018-05-08T06:53:51.378Z,35.60
2018-05-08T06:56:18.830Z,36.40
2018-05-08T06:58:46.915Z,37.30
2018-05-08T07:01:14.378Z,38.00
2018-05-08T07:03:41.804Z,38.70
2018-05-08T07:06:09.230Z,39.20
2018-05-08T07:08:37.429Z,39.80
2018-05-08T07:11:04.901Z,39.90
2018-05-08T07:13:32.314Z,40.10
2018-05-08T07:15:59.873Z,40.40
2018-05-08T07:18:27.173Z,40.30
2018-05-08T07:20:54.608Z,40.40
2018-05-08T07:23:22.037Z,40.60
2018-05-08T07:25:49.475Z,40.90
2018-05-08T07:28:16.929Z,40.90
2018-05-08T07:30:44.362Z,40.70
2018-05-08T07:33:11.787Z,40.90
2018-05-08T07:35:40.005Z,41.90
2018-05-08T07:38:07.438Z,41.90
2018-05-08T07:40:35.628Z,41.30
2018-05-08T07:43:03.051Z,41.20
2018-05-08T07:45:31.359Z,42.00
2018-05-08T07:47:58.812Z,42.00
2018-05-08T07:50:26.239Z,42.90
2018-05-08T07:52:54.530Z,44.20
2018-05-08T07:55:21.976Z,44.10
2018-05-08T07:57:50.174Z,44.00
2018-05-08T08:00:17.599Z,43.90
2018-05-08T08:02:46.634Z,44.10
2018-05-08T08:05:14.066Z,44.10
2018-05-08T08:07:41.496Z,44.30
2018-05-08T08:10:08.926Z,44.60
2018-05-08T08:12:36.359Z,43.80
2018-05-08T08:15:03.802Z,43.10
2018-05-08T08:17:31.987Z,42.70
2018-05-08T08:19:59.425Z,42.60
2018-05-08T08:22:27.715Z,42.80
2018-05-08T08:24:55.160Z,42.70
2018-05-08T08:27:23.348Z,43.40
2018-05-08T08:29:50.816Z,43.40
2018-05-08T08:32:18.996Z,43.70
2018-05-08T08:34:46.983Z,43.60
2018-05-08T08:37:14.420Z,43.90
2018-05-08T08:39:41.862Z,43.90
2018-05-08T08:42:09.359Z,44.10
2018-05-08T08:44:36.767Z,43.80
2018-05-08T08:47:04.969Z,44.10
2018-05-08T08:49:32.402Z,44.10
2018-05-08T08:52:00.602Z,43.40
2018-05-08T08:54:28.080Z,43.40
2018-05-08T08:56:55.528Z,43.50
2018-05-08T08:59:22.952Z,44.10
2018-05-08T09:01:50.490Z,44.30
2018-05-08T09:04:17.934Z,43.70
2018-05-08T09:06:45.362Z,43.40
2018-05-08T09:09:12.796Z,44.20
2018-05-08T09:11:40.236Z,44.90
2018-05-08T09:14:08.433Z,44.50
2018-05-08T09:16:35.881Z,44.50
2018-05-08T09:19:03.306Z,44.30
2018-05-08T09:21:31.509Z,44.80
2018-05-08T09:23:58.935Z,44.80
2018-05-08T09:26:26.763Z,44.80
2018-05-08T09:28:54.272Z,44.80
2018-05-08T09:31:22.475Z,45.60
2018-05-08T09:33:49.911Z,45.50
2018-05-08T09:36:18.107Z,45.50
2018-05-08T09:38:45.535Z,45.60
2018-05-08T09:41:14.626Z,44.30
2018-05-08T09:43:42.084Z,44.30
2018-05-08T09:46:09.519Z,44.10
2018-05-08T09:48:36.946Z,44.20
2018-05-08T09:51:04.385Z,44.90
2018-05-08T09:53:31.820Z,44.50
2018-05-08T09:56:00.016Z,45.10
2018-05-08T09:58:27.448Z,45.00
2018-05-08T10:00:56.514Z,45.40
2018-05-08T10:03:23.919Z,45.40
2018-05-08T10:05:51.358Z,46.10
2018-05-08T10:08:19.576Z,46.40
2018-05-08T10:10:47.938Z,46.10
2018-05-08T10:13:16.093Z,46.00
2018-05-08T10:15:43.498Z,46.60
2018-05-08T10:18:10.930Z,46.80
2018-05-08T10:20:38.380Z,46.50
2018-05-08T10:23:06.584Z,46.00
2018-05-08T10:25:34.237Z,45.90
2018-05-08T10:28:01.653Z,45.90
2018-05-08T10:30:29.857Z,44.90
2018-05-08T10:32:57.332Z,44.90
2018-05-08T10:35:25.502Z,45.20
2018-05-08T10:37:52.915Z,45.20
2018-05-08T10:40:21.111Z,45.70
2018-05-08T10:42:49.415Z,45.40
2018-05-08T10:45:16.743Z,45.30
2018-05-08T10:47:44.200Z,45.50
2018-05-08T10:50:12.411Z,46.50
2018-05-08T10:52:39.844Z,46.40
2018-05-08T10:55:07.272Z,45.70
2018-05-08T10:57:35.475Z,46.50
2018-05-08T11:00:02.898Z,46.50
2018-05-08T11:02:30.332Z,46.60
2018-05-08T11:04:57.764Z,46.70
2018-05-08T11:07:25.199Z,47.00
2018-05-08T11:09:52.638Z,46.50
2018-05-08T11:12:20.831Z,46.00
2018-05-08T11:14:48.266Z,46.00
2018-05-08T11:17:16.522Z,46.90
2018-05-08T11:19:43.987Z,46.90
2018-05-08T11:22:11.427Z,46.60
2018-05-08T11:24:38.839Z,46.40
2018-05-08T11:27:06.266Z,45.60
2018-05-08T11:29:34.471Z,45.80
2018-05-08T11:32:02.112Z,45.80
2018-05-08T11:34:30.316Z,45.50
2018-05-08T11:36:58.508Z,45.90
2018-05-08T11:39:26.069Z,45.90
2018-05-08T11:41:53.364Z,45.90
2018-05-08T11:44:20.904Z,45.80
2018-05-08T11:46:48.506Z,45.90
2018-05-08T11:49:16.743Z,46.60
2018-05-08T11:51:44.167Z,46.60
2018-05-08T11:54:11.662Z,46.70
2018-05-08T11:56:39.087Z,46.50
2018-05-08T11:59:06.524Z,46.70
2018-05-08T12:01:34.107Z,46.70
2018-05-08T12:04:01.557Z,46.70
2018-05-08T12:06:29.011Z,46.70
2018-05-08T12:08:56.436Z,46.90
2018-05-08T12:11:24.640Z,47.70
2018-05-08T12:13:52.065Z,47.70
2018-05-08T12:16:20.262Z,47.20
2018-05-08T12:18:47.695Z,47.20
2018-05-08T12:21:15.887Z,47.10
2018-05-08T12:23:43.339Z,47.00
2018-05-08T12:26:10.743Z,47.10
2018-05-08T12:28:38.184Z,47.30
2018-05-08T12:31:05.631Z,47.40
2018-05-08T12:33:33.065Z,47.20
2018-05-08T12:36:01.258Z,47.00
2018-05-08T12:38:28.699Z,47.00
2018-05-08T12:40:56.971Z,47.10
2018-05-08T12:43:25.163Z,47.10
2018-05-08T12:45:52.607Z,47.10
2018-05-08T12:48:20.799Z,46.50
2018-05-08T12:50:48.308Z,46.50
2018-05-08T12:53:15.783Z,46.60
2018-05-08T12:55:43.218Z,46.60
2018-05-08T12:58:10.648Z,46.90
2018-05-08T13:00:38.069Z,46.90
2018-05-08T13:03:06.269Z,46.10
2018-05-08T13:05:33.696Z,46.10
2018-05-08T13:08:01.911Z,46.00
2018-05-08T13:10:29.345Z,46.00
2018-05-08T13:12:56.960Z,46.00
2018-05-08T13:15:24.443Z,46.20
2018-05-08T13:17:51.865Z,46.30
2018-05-08T13:20:19.297Z,46.10
2018-05-08T13:22:48.419Z,45.70
2018-05-08T13:25:16.068Z,45.70
2018-05-08T13:27:43.503Z,45.80
2018-05-08T13:30:10.937Z,45.70
2018-05-08T13:32:39.141Z,45.70
2018-05-08T13:35:06.578Z,45.70
2018-05-08T13:37:34.784Z,46.50
2018-05-08T13:40:02.228Z,46.40
2018-05-08T13:42:29.656Z,46.60
2018-05-08T13:44:57.855Z,46.00
2018-05-08T13:47:25.283Z,46.00
2018-05-08T13:49:52.728Z,46.10
2018-05-08T13:52:20.152Z,46.20
2018-05-08T13:54:47.623Z,45.80
2018-05-08T13:57:15.141Z,46.10
2018-05-08T13:59:43.336Z,45.80
2018-05-08T14:02:11.680Z,45.70
2018-05-08T14:04:39.880Z,45.50
2018-05-08T14:07:07.321Z,45.50
2018-05-08T14:09:35.509Z,44.80
2018-05-08T14:12:02.956Z,44.80
2018-05-08T14:14:31.144Z,44.80
2018-05-08T14:16:58.612Z,44.70
2018-05-08T14:19:26.215Z,44.50
2018-05-08T14:21:54.224Z,44.60
2018-05-08T14:24:21.683Z,44.60
2018-05-08T14:26:49.426Z,44.60
2018-05-08T14:29:16.943Z,44.50
2018-05-08T14:31:44.545Z,44.40
2018-05-08T14:34:11.910Z,44.10
2018-05-08T14:36:40.103Z,43.80
2018-05-08T14:39:07.533Z,43.80
2018-05-08T14:41:35.726Z,43.10
2018-05-08T14:44:04.002Z,43.00
2018-05-08T14:46:32.208Z,42.10
2018-05-08T14:48:59.721Z,42.10
2018-05-08T14:51:27.141Z,41.40
2018-05-08T14:53:56.004Z,40.60
2018-05-08T14:56:23.428Z,40.20
2018-05-08T14:58:52.998Z,39.50
2018-05-08T15:01:20.411Z,38.90
2018-05-08T15:03:47.867Z,38.30
2018-05-08T15:06:15.399Z,37.70
2018-05-08T15:08:42.807Z,37.40
2018-05-08T15:11:10.251Z,37.40
2018-05-08T15:13:37.699Z,37.10
2018-05-08T15:16:05.135Z,36.90
2018-05-08T15:18:33.331Z,36.60
2018-05-08T15:21:00.757Z,36.60
2018-05-08T15:23:28.179Z,36.60
2018-05-08T15:25:55.617Z,36.20
2018-05-08T15:28:23.067Z,36.20
2018-05-08T15:30:50.496Z,36.00
2018-05-08T15:33:18.695Z,35.90
2018-05-08T15:35:46.128Z,35.80
2018-05-08T15:38:14.395Z,35.70
2018-05-08T15:40:41.897Z,35.70
2018-05-08T15:43:09.505Z,35.60
2018-05-08T15:45:37.108Z,35.30
2018-05-08T15:48:04.600Z,35.30
2018-05-08T15:50:32.044Z,35.20
2018-05-08T15:52:59.468Z,35.20
2018-05-08T15:55:34.786Z,34.90
2018-05-08T15:58:02.340Z,34.90
2018-05-08T16:00:29.776Z,34.90
2018-05-08T16:02:57.313Z,34.60
2018-05-08T16:05:26.037Z,34.60
2018-05-08T16:07:53.661Z,34.60
2018-05-08T16:10:21.132Z,34.50
2018-05-08T16:12:51.751Z,34.30
2018-05-08T16:15:19.295Z,34.20
2018-05-08T16:17:48.844Z,34.40
2018-05-08T16:20:16.288Z,34.30
2018-05-08T16:23:04.040Z,34.00
2018-05-08T16:25:33.822Z,34.20
2018-05-08T16:28:03.170Z,34.20
2018-05-08T16:30:30.673Z,34.10
2018-05-08T16:32:58.015Z,34.00
2018-05-08T16:35:26.223Z,33.50
2018-05-08T16:37:53.657Z,33.50
2018-05-08T16:40:21.079Z,33.50
2018-05-08T16:42:48.503Z,33.60
2018-05-08T16:45:15.947Z,33.50
2018-05-08T16:47:43.371Z,33.40
2018-05-08T16:50:11.735Z,33.30
2018-05-08T16:52:40.030Z,33.30
2018-05-08T16:55:08.240Z,33.30
2018-05-08T16:57:35.668Z,33.30
2018-05-08T17:00:03.858Z,33.40
2018-05-08T17:02:31.283Z,33.40
2018-05-08T17:04:59.641Z,33.00
2018-05-08T17:07:27.075Z,33.00
2018-05-08T17:09:54.526Z,33.00
2018-05-08T17:12:22.040Z,32.80
2018-05-08T17:14:49.444Z,32.60
2018-05-08T17:17:16.879Z,32.60
2018-05-08T17:19:44.305Z,32.30
2018-05-08T17:22:11.740Z,32.00
2018-05-08T17:24:39.266Z,31.90
2018-05-08T17:27:07.513Z,31.90
2018-05-08T17:29:34.939Z,31.70
2018-05-08T17:32:02.477Z,31.60
2018-05-08T17:34:29.934Z,31.50
2018-05-08T17:36:57.372Z,31.50
2018-05-08T17:39:24.803Z,31.40
2018-05-08T17:41:52.240Z,31.40
2018-05-08T17:44:19.738Z,31.40
2018-05-08T17:46:48.087Z,31.20
2018-05-08T17:49:16.741Z,31.30
2018-05-08T17:51:44.175Z,31.20
2018-05-08T17:54:12.408Z,31.20
2018-05-08T17:56:39.908Z,31.10
2018-05-08T17:59:07.336Z,30.90
2018-05-08T18:01:34.768Z,30.90
2018-05-08T18:04:02.215Z,30.70
2018-05-08T18:06:29.805Z,30.80
2018-05-08T18:08:57.996Z,30.40
2018-05-08T18:11:25.456Z,30.40
2018-05-08T18:13:53.633Z,30.30
2018-05-08T18:16:21.195Z,30.30
2018-05-08T18:18:48.620Z,30.30
2018-05-08T18:21:16.818Z,30.00
2018-05-08T18:23:44.255Z,29.90
2018-05-08T18:26:12.453Z,29.90
2018-05-08T18:28:40.030Z,29.90
2018-05-08T18:31:07.458Z,29.80
2018-05-08T18:33:35.665Z,29.70
2018-05-08T18:36:03.106Z,29.70
2018-05-08T18:38:30.523Z,29.60
2018-05-08T18:40:57.962Z,29.60
2018-05-08T18:43:25.403Z,29.60
2018-05-08T18:45:52.855Z,29.60
2018-05-08T18:48:20.456Z,29.50
2018-05-08T18:50:48.297Z,29.40
2018-05-08T18:53:15.757Z,29.30
2018-05-08T18:55:43.231Z,29.10
2018-05-08T18:58:10.672Z,29.10
2018-05-08T19:00:43.807Z,29.00
2018-05-08T19:03:12.037Z,28.80
2018-05-08T19:05:39.475Z,28.80
2018-05-08T19:08:06.941Z,28.80
2018-05-08T19:10:34.381Z,28.70
2018-05-08T19:13:01.886Z,28.40
2018-05-08T19:15:34.985Z,28.30
2018-05-08T19:18:02.425Z,28.30
2018-05-08T19:20:30.611Z,28.20
2018-05-08T19:22:58.050Z,28.20
2018-05-08T19:25:25.892Z,28.20
2018-05-08T19:27:53.319Z,28.00
2018-05-08T19:30:27.230Z,27.80
2018-05-08T19:32:54.940Z,27.80
2018-05-08T19:35:27.962Z,27.80
2018-05-08T19:38:01.930Z,27.60
2018-05-08T19:40:29.348Z,27.60
2018-05-08T19:42:57.552Z,27.50
2018-05-08T19:45:24.995Z,27.40
2018-05-08T19:47:53.180Z,27.50
2018-05-08T19:50:20.775Z,27.40
2018-05-08T19:52:48.431Z,27.40
2018-05-08T19:55:16.022Z,27.40
2018-05-08T19:57:44.346Z,27.20
2018-05-08T20:00:11.668Z,27.20
2018-05-08T20:02:39.872Z,26.80
2018-05-08T20:05:07.297Z,26.70
2018-05-08T20:07:35.513Z,26.30
2018-05-08T20:10:02.937Z,26.40
2018-05-08T20:12:31.131Z,26.20
2018-05-08T20:14:58.564Z,26.20
2018-05-08T20:17:26.759Z,25.90
2018-05-08T20:19:54.190Z,25.90
2018-05-08T20:22:22.393Z,25.90
2018-05-08T20:24:49.835Z,25.90
2018-05-08T20:27:18.040Z,25.40
2018-05-08T20:29:45.476Z,25.40
2018-05-08T20:32:12.911Z,25.20
2018-05-08T20:34:41.098Z,25.20
2018-05-08T20:37:08.534Z,25.20
2018-05-08T20:39:35.950Z,25.00
2018-05-08T20:42:03.387Z,24.90
2018-05-08T20:44:31.586Z,25.00
2018-05-08T20:46:59.009Z,25.00
2018-05-08T20:49:26.487Z,24.90
2018-05-08T20:51:53.892Z,24.80
2018-05-08T20:54:21.383Z,24.70
2018-05-08T20:56:48.810Z,24.50
2018-05-08T20:59:16.457Z,24.40
2018-05-08T21:01:43.898Z,24.40
2018-05-08T21:04:11.345Z,24.20
2018-05-08T21:06:38.767Z,24.30
2018-05-08T21:09:07.059Z,24.40
2018-05-08T21:11:34.437Z,24.40
2018-05-08T21:14:01.887Z,24.50
2018-05-08T21:16:29.302Z,24.70
2018-05-08T21:18:57.514Z,25.10
2018-05-08T21:21:24.927Z,25.00
2018-05-08T21:23:53.659Z,25.20
2018-05-08T21:26:21.080Z,25.10
2018-05-08T21:28:54.151Z,25.20
2018-05-08T21:31:21.587Z,25.20
2018-05-08T21:33:49.026Z,25.10
2018-05-08T21:36:16.443Z,25.00
2018-05-08T21:38:44.644Z,24.70
2018-05-08T21:41:12.063Z,24.60
2018-05-08T21:43:39.499Z,24.50
2018-05-08T21:46:06.935Z,24.30
2018-05-08T21:48:34.371Z,24.10
2018-05-08T21:51:01.802Z,24.00
2018-05-08T21:53:29.999Z,23.90
2018-05-08T21:55:57.434Z,23.90
2018-05-08T21:58:25.658Z,23.80
2018-05-08T22:00:53.108Z,23.80
2018-05-08T22:03:20.538Z,23.90
2018-05-08T22:05:48.755Z,23.60
2018-05-08T22:08:16.195Z,23.60
2018-05-08T22:10:44.205Z,23.40
2018-05-08T22:13:11.639Z,23.20
2018-05-08T22:15:39.062Z,23.20
2018-05-08T22:18:06.510Z,23.20
2018-05-08T22:20:34.699Z,22.90
2018-05-08T22:23:02.132Z,22.90
2018-05-08T22:25:30.343Z,23.10
2018-05-08T22:27:57.801Z,23.10
2018-05-08T22:30:25.210Z,23.00
2018-05-08T22:32:52.638Z,22.90
2018-05-08T22:35:20.066Z,22.90
2018-05-08T22:37:47.502Z,22.70
2018-05-08T22:40:15.715Z,22.70
2018-05-08T22:42:43.131Z,22.70
2018-05-08T22:45:11.344Z,22.40
2018-05-08T22:47:38.778Z,22.40
2018-05-08T22:50:06.209Z,22.50
2018-05-08T22:52:34.394Z,22.60
2018-05-08T22:55:01.839Z,22.60
2018-05-08T22:57:30.030Z,22.90
2018-05-08T22:59:58.235Z,23.20
2018-05-08T23:02:25.664Z,23.10
2018-05-08T23:04:53.865Z,23.90
2018-05-08T23:07:21.295Z,23.90
2018-05-08T23:09:48.876Z,24.10
2018-05-08T23:12:16.316Z,24.20
2018-05-08T23:14:44.520Z,24.30
2018-05-08T23:17:11.980Z,24.30
2018-05-08T23:19:39.391Z,24.40
2018-05-08T23:22:07.592Z,24.70
2018-05-08T23:24:35.019Z,24.60
2018-05-08T23:27:03.215Z,24.80
2018-05-08T23:29:30.660Z,24.80
2018-05-08T23:31:58.067Z,24.80
2018-05-08T23:34:25.510Z,24.70
2018-05-08T23:36:52.930Z,24.80
2018-05-08T23:39:21.130Z,24.70
2018-05-08T23:41:48.934Z,24.70
2018-05-08T23:44:16.377Z,24.70
2018-05-08T23:46:43.832Z,24.80
2018-05-08T23:49:11.262Z,24.70
2018-05-08T23:51:39.395Z,24.70
2018-05-08T23:54:06.820Z,24.80
2018-05-08T23:56:34.251Z,24.70
2018-05-08T23:59:01.687Z,24.80
